Last 48 Hours

Upper Lake

Hourly Data | America/Los_Angeles
as of 10/26/20 8:16 AM PDT
Date & Time Temp (°F) Temp2 (°F) RH (%) Dew Pt (°F) Wet Bulb (°F) Wind Dir (°) Wind Spd (mph) Wind Gust (mph) Leaf Wet (mins) Latest Rain (In) Daily Rain (In) Daily Max Temp (°F) Daily Min Temp (°F) Daily Leaf Wet Hrs (hrs)
10/26/20 - 0800 46.6 46.0 12 -5.0 32.6 E | 89 2.2 5.8 0.0 0.00 0.00 58.3 42.6 0.0
10/26/20 - 0700 57.1 56.9 3 -22.6 37.1 N | 3 3.1 12.0 0.0 0.00 0.00 58.3 45.6 0.0
10/26/20 - 0600 55.4 55.5 4 -21.2 36.3 WNW | 301 5.8 14.6 0.0 0.00 0.00 58.3 45.6 0.0
10/26/20 - 0500 51.6 52.6 7 -13.0 34.7 WSW | 240 4.1 9.9 0.0 0.00 0.00 57.7 45.6 0.0
10/26/20 - 0400 48.4 48.5 9 -9.4 33.3 WNW | 291 3.7 9.2 0.0 0.00 0.00 57.7 45.6 0.0
10/26/20 - 0300 52.4 52.3 7 -11.2 35.3 NW | 317 2.5 9.1 0.0 0.00 0.00 57.7 48.0 0.0
10/26/20 - 0200 54.8 54.6 6 -11.6 36.5 W | 261 3.6 9.8 0.0 0.00 0.00 57.7 50.0 0.0
10/26/20 - 0100 52.0 52.0 13 -2.5 36.0 ENE | 74 4.8 22.0 0.0 0.00 0.00 71.4 37.9 0.9
10/26/20 - 0000 51.1 51.1 13 0.2 35.7 NNE | 27 2.7 10.3 0.0 0.00 0.00 71.4 37.9 0.9
10/25/20 - 2300 53.4 52.9 11 -1.1 36.7 N | 351 2.5 8.6 0.0 0.00 0.00 71.4 37.9 0.9
10/25/20 - 2200 59.6 59.5 6 -6.5 39.2 N | 7 3.7 14.1 0.0 0.00 0.00 71.4 37.9 0.9
10/25/20 - 2100 60.6 60.6 7 -4.2 39.9 NNE | 20 6.7 18.6 0.0 0.00 0.00 71.4 37.9 0.9
10/25/20 - 2000 57.9 57.9 10 -0.3 39.0 N | 6 3.6 17.4 0.0 0.00 0.00 71.4 37.9 0.9
10/25/20 - 1900 62.4 62.2 7 -4.3 40.8 E | 83 4.2 13.4 0.0 0.00 0.00 71.4 37.9 0.9
10/25/20 - 1800 66.6 66.4 5 -6.2 42.4 ENE | 78 6.1 12.9 0.0 0.00 0.00 71.4 37.9 0.9
10/25/20 - 1700 70.2 69.8 9 4.8 45.4 ESE | 107 4.9 15.4 0.0 0.00 0.00 71.4 37.9 0.9
10/25/20 - 1600 70.6 69.3 20 27.9 49.4 SSE | 166 5.2 11.2 0.0 0.00 0.00 71.4 37.9 0.9
10/25/20 - 1500 70.0 69.2 27 34.0 51.1 S | 174 6.1 12.6 0.0 0.00 0.00 70.6 37.9 0.9
10/25/20 - 1400 68.5 68.5 33 38.3 52.2 S | 171 4.4 11.4 0.0 0.00 0.00 69.4 37.9 0.9
10/25/20 - 1300 64.6 64.9 47 43.6 53.2 SE | 127 2.9 7.3 0.0 0.00 0.00 66.9 37.9 0.9
10/25/20 - 1200 60.8 60.8 61 47.2 53.7 S | 180 3.4 9.2 0.0 0.00 0.00 62.8 37.9 0.9
10/25/20 - 1100 57.6 57.6 77 50.3 54.3 SE | 140 3.4 7.0 0.0 0.00 0.00 59.7 37.9 0.9
10/25/20 - 1000 54.0 53.9 77 46.9 50.8 SE | 142 0.6 4.7 0.0 0.00 0.00 56.8 37.9 0.9
10/25/20 - 0900 42.4 43.3 99 42.0 42.5 N | 8 0.9 3.4 0.0 0.00 0.00 48.8 37.9 0.9
10/25/20 - 0800 38.2 38.2 100 38.2 38.4 NNE | 30 0.5 3.8 0.0 0.00 0.00 44.5 37.9 0.9
10/25/20 - 0700 38.7 38.6 100 38.7 38.8 NNW | 327 0.3 2.3 0.0 0.00 0.00 44.5 37.9 0.9
10/25/20 - 0600 39.6 39.5 100 39.6 39.8 NNW | 348 1.2 3.3 0.0 0.00 0.00 44.5 39.0 0.9
10/25/20 - 0500 40.7 40.4 100 40.7 41.0 NNW | 339 0.1 1.8 39.9 0.00 0.00 44.5 39.8 0.9
10/25/20 - 0400 41.4 41.3 99 41.2 41.6 NW | 310 0.9 3.8 13.4 0.00 0.00 44.5 40.8 0.2
10/25/20 - 0300 42.1 42.0 98 41.6 42.2 NW | 309 0.5 2.3 0.0 0.00 0.00 44.5 41.3 0.0
10/25/20 - 0200 43.6 43.2 97 42.7 43.5 NNE | 28 0.7 2.7 0.0 0.00 0.00 44.5 42.0 0.0
10/25/20 - 0100 45.0 44.8 94 43.4 44.6 NE | 56 0.9 3.2 0.0 0.00 0.00 75.9 38.6 0.0
10/25/20 - 0000 46.4 46.3 90 43.7 45.5 N | 354 1.0 3.0 0.0 0.00 0.00 75.9 38.6 0.0
10/24/20 - 2300 48.2 47.8 85 44.0 46.6 WNW | 299 0.6 3.7 0.0 0.00 0.00 75.9 38.6 0.0
10/24/20 - 2200 50.2 49.9 79 43.9 47.4 NW | 315 0.7 3.0 0.0 0.00 0.00 75.9 38.6 0.0
10/24/20 - 2100 53.1 52.8 69 43.1 48.4 NNW | 330 0.9 4.0 0.0 0.00 0.00 75.9 38.6 0.0
10/24/20 - 2000 59.0 58.3 54 42.3 50.4 SW | 233 1.8 7.1 0.0 0.00 0.00 75.9 38.6 0.0
10/24/20 - 1900 66.3 66.0 39 40.3 52.2 W | 272 5.9 14.5 0.0 0.00 0.00 75.9 38.6 0.0
10/24/20 - 1800 71.2 70.9 33 40.6 54.0 WNW | 286 6.8 13.5 0.0 0.00 0.00 75.9 38.6 0.0
10/24/20 - 1700 74.8 73.4 28 39.4 54.5 SSE | 162 4.6 10.7 0.0 0.00 0.00 75.9 38.6 0.0
10/24/20 - 1600 74.9 73.8 26 38.1 54.1 SSE | 153 5.4 10.7 0.0 0.00 0.00 75.9 38.6 0.0
10/24/20 - 1500 74.6 74.2 27 38.0 53.9 S | 175 5.0 11.3 0.0 0.00 0.00 75.7 38.6 0.0
10/24/20 - 1400 73.9 73.5 28 38.9 54.1 S | 172 4.7 10.3 0.0 0.00 0.00 74.6 38.6 0.0
10/24/20 - 1300 71.4 71.6 32 40.2 53.9 SSE | 147 3.3 7.3 0.0 0.00 0.00 73.7 38.6 0.0
10/24/20 - 1200 67.1 67.6 38 40.9 52.8 SE | 126 2.1 5.0 0.0 0.00 0.00 69.3 38.6 0.0
10/24/20 - 1100 63.0 62.7 45 41.3 51.5 SSE | 162 1.6 4.1 0.0 0.00 0.00 65.7 38.6 0.0
10/24/20 - 1000 55.8 56.0 62 42.9 49.4 ESE | 122 1.2 3.0 0.0 0.00 0.00 61.1 38.6 0.0
10/24/20 - 0900 44.5 45.3 90 41.7 43.4 NE | 56 0.6 2.3 0.0 0.00 0.00 50.5 38.6 0.0
10/24/20 - 0800 39.0 38.8 99 38.7 39.0 NNW | 330 0.3 2.8 1.8 0.00 0.00 44.8 38.6 0.0
Max 74.9 74.2 100 50.3 54.5 - 6.8 22.0 39.9 0.00 0.00 75.9 50.0 0.9
Avg 56.1 56.0 47 25.3 44.7 - 2.9 8.4 1.1 0.00 - - - -
Min 38.2 38.2 3 -22.6 32.6 - 0.1 1.8 0.0 0.00 0.00 44.5 37.9 0.0
Total - - - - - - - - - 0.00 - - - -